createdAt,value
2023-04-10T00:00:30.000Z,9.2
2023-04-10T00:01:45.000Z,9.2
2023-04-10T00:03:01.000Z,9.1
2023-04-10T00:04:17.000Z,9
2023-04-10T00:05:34.000Z,9
2023-04-10T00:06:50.000Z,9
2023-04-10T00:08:06.000Z,9
2023-04-10T00:09:23.000Z,8.9
2023-04-10T00:10:39.654Z,9
2023-04-10T00:11:55.000Z,9.1
2023-04-10T00:13:11.000Z,9.1
2023-04-10T00:14:28.000Z,9.2
2023-04-10T00:15:44.801Z,9.2
2023-04-10T00:17:00.000Z,9.1
2023-04-10T00:18:16.000Z,9
2023-04-10T00:19:32.000Z,9
2023-04-10T00:20:48.000Z,8.9
2023-04-10T00:22:05.000Z,9
2023-04-10T00:23:21.000Z,8.9
2023-04-10T00:24:37.000Z,8.9
2023-04-10T00:25:53.000Z,8.9
2023-04-10T00:27:10.000Z,8.9
2023-04-10T00:28:26.000Z,9
2023-04-10T00:29:42.000Z,8.9
2023-04-10T00:30:58.000Z,8.9
2023-04-10T00:32:13.000Z,8.9
2023-04-10T00:33:29.000Z,8.9
2023-04-10T00:34:45.000Z,8.8
2023-04-10T00:36:01.501Z,8.7
2023-04-10T00:37:16.000Z,8.7
2023-04-10T00:38:32.000Z,8.5
2023-04-10T00:39:49.000Z,8.6
2023-04-10T00:41:05.000Z,8.7
2023-04-10T00:42:21.000Z,8.7
2023-04-10T00:43:37.000Z,8.7
2023-04-10T00:44:54.000Z,8.6
2023-04-10T00:46:10.000Z,8.6
2023-04-10T00:47:26.000Z,8.6
2023-04-10T00:48:43.000Z,8.5
2023-04-10T00:49:59.000Z,8.4
2023-04-10T00:51:15.000Z,8.5
2023-04-10T00:52:31.000Z,8.6
2023-04-10T00:53:47.000Z,8.6
2023-04-10T00:55:03.000Z,8.5
2023-04-10T00:56:19.000Z,8.5
2023-04-10T00:57:36.000Z,8.4
2023-04-10T00:58:52.000Z,8.4
2023-04-10T01:00:08.000Z,8.6
2023-04-10T01:01:25.261Z,8.6
2023-04-10T01:02:41.000Z,8.6
2023-04-10T01:03:57.847Z,8.6
2023-04-10T01:05:13.000Z,8.6
2023-04-10T01:06:30.000Z,8.5
2023-04-10T01:07:46.000Z,8.5
2023-04-10T01:09:01.000Z,8.4
2023-04-10T01:10:17.000Z,8.3
2023-04-10T01:11:33.000Z,8.3
2023-04-10T01:12:49.000Z,8.3
2023-04-10T01:14:04.000Z,8.3
2023-04-10T01:15:20.000Z,8.4
2023-04-10T01:16:36.000Z,8.4
2023-04-10T01:17:52.000Z,8.5
2023-04-10T01:19:09.000Z,8.4
2023-04-10T01:20:25.000Z,8.4
2023-04-10T01:21:41.000Z,8.4
2023-04-10T01:22:57.000Z,8.5
2023-04-10T01:24:14.000Z,8.5
2023-04-10T01:25:30.000Z,8.5
2023-04-10T01:26:46.000Z,8.3
2023-04-10T01:28:03.486Z,8.2
2023-04-10T01:29:19.000Z,8.3
2023-04-10T01:30:34.000Z,8.3
2023-04-10T01:31:51.000Z,8.3
2023-04-10T01:33:07.000Z,8.4
2023-04-10T01:34:23.000Z,8.4
2023-04-10T01:35:39.000Z,8.3
2023-04-10T01:36:56.000Z,8.2
2023-04-10T01:38:12.000Z,8.2
2023-04-10T01:39:28.993Z,8.1
2023-04-10T01:40:45.000Z,8.1
2023-04-10T01:42:01.000Z,8.2
2023-04-10T01:43:17.000Z,8.2
2023-04-10T01:44:32.000Z,8.1
2023-04-10T01:45:48.000Z,8.2
2023-04-10T01:47:03.000Z,8.1
2023-04-10T01:48:18.000Z,8.1
2023-04-10T01:49:35.000Z,8.1
2023-04-10T01:50:51.000Z,8.1
2023-04-10T01:52:07.000Z,8.1
2023-04-10T01:53:24.248Z,8.2
2023-04-10T01:54:40.000Z,8.1
2023-04-10T01:55:56.000Z,8.2
2023-04-10T01:57:12.000Z,8.2
2023-04-10T01:58:29.000Z,8.2
2023-04-10T01:59:45.000Z,8.2
2023-04-10T02:01:01.000Z,8.1
2023-04-10T02:02:18.000Z,8.1
2023-04-10T02:03:34.000Z,8.2
2023-04-10T02:04:49.000Z,8.2
2023-04-10T02:06:05.000Z,8.1
2023-04-10T02:07:22.000Z,8
2023-04-10T02:08:38.000Z,8.1
2023-04-10T02:09:54.000Z,8.1
2023-04-10T02:11:11.000Z,8.1
2023-04-10T02:12:27.000Z,8.2
2023-04-10T02:13:42.000Z,8
2023-04-10T02:14:57.000Z,7.9
2023-04-10T02:16:14.000Z,7.8
2023-04-10T02:17:29.786Z,7.8
2023-04-10T02:18:45.059Z,7.8
2023-04-10T02:20:01.000Z,7.8
2023-04-10T02:21:17.000Z,7.8
2023-04-10T02:22:33.000Z,7.9
2023-04-10T02:23:49.000Z,7.9
2023-04-10T02:25:06.000Z,7.9
2023-04-10T02:26:22.000Z,7.9
2023-04-10T02:27:38.000Z,7.8
2023-04-10T02:28:55.000Z,7.8
2023-04-10T02:30:11.686Z,7.8
2023-04-10T02:31:27.000Z,7.8
2023-04-10T02:32:43.000Z,7.8
2023-04-10T02:34:00.000Z,7.7
2023-04-10T02:35:15.000Z,7.6
2023-04-10T02:36:31.000Z,7.6
2023-04-10T02:37:48.000Z,7.5
2023-04-10T02:39:04.000Z,7.6
2023-04-10T02:40:20.000Z,7.6
2023-04-10T02:41:37.000Z,7.6
2023-04-10T02:42:53.000Z,7.6
2023-04-10T02:44:08.000Z,7.6
2023-04-10T02:45:23.000Z,7.7
2023-04-10T02:46:39.000Z,7.7
2023-04-10T02:47:54.788Z,7.6
2023-04-10T02:49:10.000Z,7.6
2023-04-10T02:50:27.000Z,7.6
2023-04-10T02:51:43.000Z,7.6
2023-04-10T02:52:59.000Z,7.7
2023-04-10T02:54:15.000Z,7.7
2023-04-10T02:55:32.522Z,7.6
2023-04-10T02:56:48.000Z,7.6
2023-04-10T02:58:04.000Z,7.6
2023-04-10T02:59:21.000Z,7.6
2023-04-10T03:00:37.000Z,7.5
2023-04-10T03:01:53.000Z,7.5
2023-04-10T03:03:09.000Z,7.4
2023-04-10T03:04:25.000Z,7.5
2023-04-10T03:05:41.000Z,7.5
2023-04-10T03:06:57.000Z,7.5
2023-04-10T03:08:14.415Z,7.6
2023-04-10T03:09:30.000Z,7.6
2023-04-10T03:10:46.000Z,7.5
2023-04-10T03:12:03.000Z,7.5
2023-04-10T03:13:18.000Z,7.5
2023-04-10T03:14:33.000Z,7.4
2023-04-10T03:15:48.000Z,7.4
2023-04-10T03:17:04.000Z,7.4
2023-04-10T03:18:20.000Z,7.4
2023-04-10T03:19:36.000Z,7.4
2023-04-10T03:20:53.000Z,7.3
2023-04-10T03:22:09.000Z,7.4
2023-04-10T03:23:25.000Z,7.3
2023-04-10T03:24:41.000Z,7.3
2023-04-10T03:25:58.495Z,7.4
2023-04-10T03:27:14.000Z,7.4
2023-04-10T03:28:30.000Z,7.4
2023-04-10T03:29:47.000Z,7.5
2023-04-10T03:31:03.000Z,7.4
2023-04-10T03:32:19.000Z,7.4
2023-04-10T03:33:35.000Z,7.4
2023-04-10T03:34:51.000Z,7.4
2023-04-10T03:36:07.000Z,7.5
2023-04-10T03:37:23.877Z,7.5
2023-04-10T03:38:40.000Z,7.5
2023-04-10T03:39:56.000Z,7.5
2023-04-10T03:41:12.000Z,7.5
2023-04-10T03:42:28.000Z,7.5
2023-04-10T03:43:43.000Z,7.5
2023-04-10T03:44:59.000Z,7.5
2023-04-10T03:46:16.185Z,7.5
2023-04-10T03:47:32.461Z,7.4
2023-04-10T03:48:47.000Z,7.5
2023-04-10T03:50:02.000Z,7.4
2023-04-10T03:51:19.000Z,7.4
2023-04-10T03:52:35.000Z,7.5
2023-04-10T03:53:51.000Z,7.4
2023-04-10T03:55:07.000Z,7.4
2023-04-10T03:56:24.000Z,7.4
2023-04-10T03:57:40.000Z,7.4
2023-04-10T03:58:56.000Z,7.4
2023-04-10T04:00:13.000Z,7.4
2023-04-10T04:01:29.000Z,7.4
2023-04-10T04:02:45.000Z,7.3
2023-04-10T04:04:01.000Z,7.3
2023-04-10T04:05:18.000Z,7.3
2023-04-10T04:06:33.000Z,7.3
2023-04-10T04:07:49.000Z,7.3
2023-04-10T04:09:06.000Z,7.3
2023-04-10T04:10:22.000Z,7.4
2023-04-10T04:11:38.000Z,7.4
2023-04-10T04:12:55.217Z,7.3
2023-04-10T04:14:11.000Z,7.3
2023-04-10T04:15:27.000Z,7.3
2023-04-10T04:16:43.000Z,7.3
2023-04-10T04:18:00.000Z,7.3
2023-04-10T04:19:16.000Z,7.3
2023-04-10T04:20:32.000Z,7.3
2023-04-10T04:21:48.000Z,7.4
2023-04-10T04:23:04.000Z,7.4
2023-04-10T04:24:20.540Z,7.4
2023-04-10T04:25:36.000Z,7.4
2023-04-10T04:26:51.000Z,7.3
2023-04-10T04:28:07.000Z,7.3
2023-04-10T04:29:23.000Z,7.3
2023-04-10T04:30:38.000Z,7.3
2023-04-10T04:31:54.016Z,7.3
2023-04-10T04:33:10.000Z,7.4
2023-04-10T04:34:26.000Z,7.4
2023-04-10T04:35:42.000Z,7.5
2023-04-10T04:36:58.000Z,7.3
2023-04-10T04:38:14.000Z,7.3
2023-04-10T04:39:31.000Z,7.3
2023-04-10T04:40:47.000Z,7.4
2023-04-10T04:42:03.000Z,7.3
2023-04-10T04:43:19.000Z,7.3
2023-04-10T04:44:36.000Z,7.3
2023-04-10T04:45:52.000Z,7.3
2023-04-10T04:47:08.000Z,7.3
2023-04-10T04:48:23.000Z,7.3
2023-04-10T04:49:40.000Z,7.3
2023-04-10T04:50:56.000Z,7.4
2023-04-10T04:52:12.000Z,7.4
2023-04-10T04:53:28.000Z,7.4
2023-04-10T04:54:44.000Z,7.4
2023-04-10T04:56:01.000Z,7.4
2023-04-10T04:57:16.000Z,7.4
2023-04-10T04:58:31.000Z,7.4
2023-04-10T04:59:47.000Z,7.4
2023-04-10T05:01:04.000Z,7.4
2023-04-10T05:02:19.737Z,7.4
2023-04-10T05:03:34.000Z,7.4
2023-04-10T05:04:50.000Z,7.4
2023-04-10T05:06:07.000Z,7.4
2023-04-10T05:07:23.000Z,7.4
2023-04-10T05:08:39.000Z,7.4
2023-04-10T05:09:55.000Z,7.4
2023-04-10T05:11:12.373Z,7.4
2023-04-10T05:12:28.000Z,7.4
2023-04-10T05:13:44.000Z,7.4
2023-04-10T05:15:00.000Z,7.5
2023-04-10T05:16:17.000Z,7.5
2023-04-10T05:17:33.000Z,7.5
2023-04-10T05:18:49.761Z,7.5
2023-04-10T05:20:04.000Z,7.5
2023-04-10T05:21:21.000Z,7.5
2023-04-10T05:22:37.000Z,7.5
2023-04-10T05:23:53.000Z,7.6
2023-04-10T05:25:09.000Z,7.5
2023-04-10T05:26:25.000Z,7.5
2023-04-10T05:27:42.000Z,7.6
2023-04-10T05:28:57.000Z,7.6
2023-04-10T05:30:12.000Z,7.6
2023-04-10T05:31:27.000Z,7.7
2023-04-10T05:32:43.000Z,7.7
2023-04-10T05:33:59.000Z,7.7
2023-04-10T05:35:15.000Z,7.7
2023-04-10T05:36:31.000Z,7.7
2023-04-10T05:37:48.000Z,7.7
2023-04-10T05:39:04.000Z,7.7
2023-04-10T05:40:20.826Z,7.8
2023-04-10T05:41:36.000Z,7.8
2023-04-10T05:42:53.000Z,7.9
2023-04-10T05:44:09.540Z,7.9
2023-04-10T05:45:24.000Z,7.9
2023-04-10T05:46:41.026Z,8
2023-04-10T05:47:57.000Z,8
2023-04-10T05:49:13.000Z,7.9
2023-04-10T05:50:29.000Z,7.9
2023-04-10T05:51:45.000Z,8
2023-04-10T05:53:01.000Z,8
2023-04-10T05:54:18.000Z,8
2023-04-10T05:55:34.000Z,7.9
2023-04-10T05:56:50.000Z,7.9
2023-04-10T05:58:06.000Z,7.9
2023-04-10T05:59:23.000Z,7.9
2023-04-10T06:00:39.000Z,7.9
2023-04-10T06:01:54.000Z,7.9
2023-04-10T06:03:10.000Z,7.9
2023-04-10T06:04:27.306Z,8
2023-04-10T06:05:43.000Z,8
2023-04-10T06:06:59.000Z,8
2023-04-10T06:08:15.000Z,8.1
2023-04-10T06:09:31.000Z,8.2
2023-04-10T06:10:48.000Z,8.2
2023-04-10T06:12:04.000Z,8.2
2023-04-10T06:13:20.000Z,8.2
2023-04-10T06:14:36.000Z,8.2
2023-04-10T06:15:53.000Z,8.1
2023-04-10T06:17:09.000Z,8.2
2023-04-10T06:18:24.884Z,8.2
2023-04-10T06:19:40.000Z,8.2
2023-04-10T06:20:57.000Z,8.2
2023-04-10T06:22:13.000Z,8.4
2023-04-10T06:23:29.000Z,8.5
2023-04-10T06:24:45.000Z,8.6
2023-04-10T06:26:01.000Z,8.6
2023-04-10T06:27:16.000Z,8.6
2023-04-10T06:28:31.000Z,8.8
2023-04-10T06:29:46.000Z,8.9
2023-04-10T06:31:03.000Z,9.1
2023-04-10T06:32:19.000Z,9.3
2023-04-10T06:33:35.000Z,9.4
2023-04-10T06:34:51.000Z,9.5
2023-04-10T06:36:07.000Z,9.6
2023-04-10T06:37:24.000Z,9.4
2023-04-10T06:38:40.000Z,9.5
2023-04-10T06:39:56.000Z,9.7
2023-04-10T06:41:12.000Z,9.8
2023-04-10T06:42:29.000Z,10
2023-04-10T06:43:45.000Z,10.2
2023-04-10T06:45:01.000Z,10.2
2023-04-10T06:46:16.000Z,10.2
2023-04-10T06:47:33.000Z,10.4
2023-04-10T06:48:49.000Z,10.4
2023-04-10T06:50:05.000Z,10.5
2023-04-10T06:51:21.000Z,10.7
2023-04-10T06:52:38.000Z,10.6
2023-04-10T06:53:54.000Z,10.7
2023-04-10T06:55:09.000Z,10.8
2023-04-10T06:56:25.072Z,11
2023-04-10T06:57:41.000Z,11.2
2023-04-10T06:58:56.000Z,11.2
2023-04-10T07:00:11.000Z,11.2
2023-04-10T07:01:27.000Z,11.1
2023-04-10T07:02:44.247Z,11.1
2023-04-10T07:04:00.000Z,11.3
2023-04-10T07:05:16.804Z,11.4
2023-04-10T07:06:32.000Z,11.6
2023-04-10T07:07:48.000Z,11.6
2023-04-10T07:09:05.403Z,11.9
2023-04-10T07:10:21.000Z,11.9
2023-04-10T07:11:37.000Z,12.1
2023-04-10T07:12:53.000Z,12.2
2023-04-10T07:14:10.000Z,11.9
2023-04-10T07:15:26.000Z,11.8
2023-04-10T07:16:41.000Z,11.9
2023-04-10T07:17:57.000Z,11.9
2023-04-10T07:19:14.000Z,12
2023-04-10T07:20:30.000Z,12
2023-04-10T07:21:46.000Z,12.3
2023-04-10T07:23:02.000Z,12.5
2023-04-10T07:24:18.000Z,12.4
2023-04-10T07:25:34.000Z,12.3
2023-04-10T07:26:49.000Z,12.4
2023-04-10T07:28:04.000Z,12.7
2023-04-10T07:29:20.000Z,12.6
2023-04-10T07:30:36.000Z,12.7
2023-04-10T07:31:52.000Z,13
2023-04-10T07:33:08.000Z,13
2023-04-10T07:34:24.000Z,13.2
2023-04-10T07:35:41.000Z,13.3
2023-04-10T07:36:57.000Z,13.2
2023-04-10T07:38:13.879Z,13
2023-04-10T07:39:29.000Z,13.2
2023-04-10T07:40:46.000Z,13
2023-04-10T07:42:02.000Z,13
2023-04-10T07:43:18.000Z,12.9
2023-04-10T07:44:34.000Z,13.1
2023-04-10T07:45:50.000Z,13.1
2023-04-10T07:47:06.523Z,13.1
2023-04-10T07:48:22.000Z,13.1
2023-04-10T07:49:38.000Z,13
2023-04-10T07:50:54.000Z,13.1
2023-04-10T07:52:11.000Z,13.4
2023-04-10T07:53:27.000Z,13.3
2023-04-10T07:54:42.000Z,13.2
2023-04-10T07:55:57.000Z,13.3
2023-04-10T07:57:13.000Z,13.3
2023-04-10T07:58:28.000Z,13.6
2023-04-10T07:59:44.957Z,13.9
2023-04-10T08:01:00.000Z,13.6
2023-04-10T08:02:17.000Z,13.7
2023-04-10T08:03:33.659Z,13.6
2023-04-10T08:04:49.000Z,13.7
2023-04-10T08:06:05.000Z,13.7
2023-04-10T08:07:22.000Z,13.7
2023-04-10T08:08:38.000Z,13.6
2023-04-10T08:09:54.000Z,13.5
2023-04-10T08:11:10.000Z,13.8
2023-04-10T08:12:27.000Z,13.7
2023-04-10T08:13:43.000Z,13.9
2023-04-10T08:14:58.000Z,13.9
2023-04-10T08:16:14.000Z,14.1
2023-04-10T08:17:30.000Z,14
2023-04-10T08:18:47.000Z,14.4
2023-04-10T08:20:03.000Z,14.4
2023-04-10T08:21:19.000Z,14.3
2023-04-10T08:22:35.000Z,14.3
2023-04-10T08:23:51.000Z,14.4
2023-04-10T08:25:06.670Z,14.3
2023-04-10T08:26:22.000Z,14.4
2023-04-10T08:27:37.000Z,14.8
2023-04-10T08:28:53.000Z,15.2
2023-04-10T08:30:09.000Z,15.2
2023-04-10T08:31:25.000Z,15
2023-04-10T08:32:41.000Z,14.6
2023-04-10T08:33:58.000Z,14.5
2023-04-10T08:35:14.000Z,14.4
2023-04-10T08:36:30.000Z,14.5
2023-04-10T08:37:47.048Z,14.3
2023-04-10T08:39:03.000Z,14.5
2023-04-10T08:40:19.000Z,14.4
2023-04-10T08:41:35.000Z,14.5
2023-04-10T08:42:51.000Z,14.8
2023-04-10T08:44:07.000Z,14.6
2023-04-10T08:45:23.000Z,14.8
2023-04-10T08:46:39.000Z,15
2023-04-10T08:47:55.000Z,14.9
2023-04-10T08:49:11.000Z,14.8
2023-04-10T08:50:28.000Z,15.1
2023-04-10T08:51:44.000Z,15.6
2023-04-10T08:53:00.000Z,16
2023-04-10T08:54:16.000Z,16.2
2023-04-10T08:55:33.000Z,16.1
2023-04-10T08:56:49.000Z,16.3
2023-04-10T08:58:05.000Z,16.5
2023-04-10T08:59:21.000Z,16.4
2023-04-10T09:00:38.000Z,16.4
2023-04-10T09:01:53.000Z,16.2
2023-04-10T09:04:25.000Z,16
2023-04-10T09:05:40.000Z,16
2023-04-10T09:06:56.000Z,16.3
2023-04-10T09:08:11.000Z,16.5
2023-04-10T09:09:26.000Z,16.8
2023-04-10T09:10:42.000Z,17.4
2023-04-10T09:11:59.000Z,17.8
2023-04-10T09:13:15.000Z,17.5
2023-04-10T09:14:31.000Z,16.9
2023-04-10T09:15:48.161Z,17.2
2023-04-10T09:17:04.000Z,17.6
2023-04-10T09:18:20.000Z,17
2023-04-10T09:19:36.000Z,17.4
2023-04-10T09:20:53.188Z,18
2023-04-10T09:22:09.000Z,17.9
2023-04-10T09:23:25.000Z,17.4
2023-04-10T09:24:41.000Z,16.8
2023-04-10T09:25:56.000Z,17.4
2023-04-10T09:27:13.000Z,17.5
2023-04-10T09:28:29.000Z,17.9
2023-04-10T09:29:45.000Z,18.1
2023-04-10T09:31:01.000Z,18.2
2023-04-10T09:32:17.000Z,17.9
2023-04-10T09:33:34.000Z,17.5
2023-04-10T09:34:49.000Z,17.4
2023-04-10T09:36:04.000Z,17.5
2023-04-10T09:37:20.000Z,17.4
2023-04-10T09:38:36.000Z,17.2
2023-04-10T09:39:51.000Z,17.3
2023-04-10T09:41:07.000Z,17.9
2023-04-10T09:42:23.000Z,17.7
2023-04-10T09:43:40.000Z,17.7
2023-04-10T09:44:56.000Z,17.9
2023-04-10T09:46:12.000Z,18.1
2023-04-10T09:47:28.000Z,17.9
2023-04-10T09:48:45.000Z,18.2
2023-04-10T09:50:01.000Z,17.8
2023-04-10T09:51:17.000Z,17.7
2023-04-10T09:52:33.000Z,17.6
2023-04-10T09:53:50.247Z,17.5
2023-04-10T09:55:06.000Z,17.5
2023-04-10T09:56:21.000Z,17.6
2023-04-10T09:57:37.000Z,17.4
2023-04-10T09:58:53.000Z,17.4
2023-04-10T10:00:09.000Z,17.5
2023-04-10T10:01:25.000Z,17.4
2023-04-10T10:02:41.000Z,17.5
2023-04-10T10:03:57.000Z,17.7
2023-04-10T10:05:13.000Z,18
2023-04-10T10:06:29.650Z,18.1
2023-04-10T10:07:44.000Z,17.7
2023-04-10T10:08:59.000Z,17.8
2023-04-10T10:10:15.000Z,18
2023-04-10T10:11:31.618Z,17.9
2023-04-10T10:12:47.000Z,17.7
2023-04-10T10:14:03.000Z,17.8
2023-04-10T10:15:20.000Z,17.9
2023-04-10T10:16:36.000Z,17.7
2023-04-10T10:17:52.000Z,17.6
2023-04-10T10:19:09.022Z,17.5
2023-04-10T10:20:25.000Z,17.6
2023-04-10T10:21:41.000Z,17.4
2023-04-10T10:22:57.000Z,17.6
2023-04-10T10:24:13.000Z,17.6
2023-04-10T10:25:29.000Z,17.5
2023-04-10T10:26:45.000Z,17.4
2023-04-10T10:28:01.000Z,17.3
2023-04-10T10:29:17.000Z,17.2
2023-04-10T10:30:33.000Z,17.1
2023-04-10T10:31:50.000Z,17.1
2023-04-10T10:33:06.000Z,17.4
2023-04-10T10:34:22.000Z,17.1
2023-04-10T10:35:38.000Z,17.4
2023-04-10T10:36:54.000Z,17.4
2023-04-10T10:38:09.000Z,17.6
2023-04-10T10:39:25.000Z,17.6
2023-04-10T10:40:41.000Z,17.8
2023-04-10T10:41:58.000Z,18.1
2023-04-10T10:43:14.000Z,18.6
2023-04-10T10:44:29.798Z,19
2023-04-10T10:45:44.000Z,18.8
2023-04-10T10:47:01.000Z,19.2
2023-04-10T10:48:17.000Z,19.2
2023-04-10T10:49:33.000Z,19.5
2023-04-10T10:50:49.000Z,19.4
2023-04-10T10:52:05.000Z,18.7
2023-04-10T10:53:22.000Z,18.6
2023-04-10T10:54:38.000Z,18.5
2023-04-10T10:55:54.885Z,18.4
2023-04-10T10:57:10.000Z,18.3
2023-04-10T10:58:27.000Z,18.3
2023-04-10T10:59:43.000Z,18.1
2023-04-10T11:00:59.000Z,18.1
2023-04-10T11:02:14.000Z,18.3
2023-04-10T11:03:31.288Z,18.2
2023-04-10T11:04:47.000Z,18.2
2023-04-10T11:06:03.000Z,18.1
2023-04-10T11:07:19.000Z,18.4
2023-04-10T11:08:35.000Z,18.4
2023-04-10T11:09:52.000Z,18.5
2023-04-10T11:11:08.000Z,18.3
2023-04-10T11:12:24.928Z,18.2
2023-04-10T11:13:40.000Z,18.7
2023-04-10T11:14:57.000Z,18.5
2023-04-10T11:16:13.000Z,18
2023-04-10T11:17:29.000Z,18
2023-04-10T11:18:44.000Z,17.9
2023-04-10T11:20:01.000Z,18
2023-04-10T11:21:17.000Z,18
2023-04-10T11:22:33.825Z,18.1
2023-04-10T11:23:49.000Z,18.1
2023-04-10T11:25:06.000Z,18.2
2023-04-10T11:26:22.486Z,18.3
2023-04-10T11:27:38.000Z,18.6
2023-04-10T11:28:54.960Z,18.7
2023-04-10T11:30:10.000Z,18.6
2023-04-10T11:31:27.000Z,18.6
2023-04-10T11:32:43.000Z,19
2023-04-10T11:33:59.000Z,19.3
2023-04-10T11:35:14.000Z,19
2023-04-10T11:36:31.000Z,18.9
2023-04-10T11:37:47.000Z,18.6
2023-04-10T11:39:03.000Z,18.8
2023-04-10T11:40:19.000Z,18.9
2023-04-10T11:41:36.000Z,18.9
2023-04-10T11:42:52.000Z,19
2023-04-10T11:44:08.000Z,18.7
2023-04-10T11:45:24.000Z,18.8
2023-04-10T11:46:40.000Z,18.8
2023-04-10T11:47:57.486Z,19.1
2023-04-10T11:49:13.723Z,18.8
2023-04-10T11:50:29.962Z,18.8
2023-04-10T11:51:44.000Z,18.6
2023-04-10T11:53:01.436Z,18.7
2023-04-10T11:54:17.000Z,18.7
2023-04-10T11:55:33.000Z,18.7
2023-04-10T11:56:49.000Z,18.6
2023-04-10T11:58:06.000Z,18.6
2023-04-10T11:59:22.000Z,18.7
2023-04-10T12:00:38.000Z,18.7
2023-04-10T12:01:54.000Z,18.7
2023-04-10T12:03:11.000Z,18.7
2023-04-10T12:04:27.000Z,18.8
2023-04-10T12:05:43.000Z,18.9
2023-04-10T12:06:59.000Z,18.9
2023-04-10T12:08:14.000Z,19.1
2023-04-10T12:09:31.000Z,19.1
2023-04-10T12:10:47.000Z,19.2
2023-04-10T12:12:03.000Z,19.3
2023-04-10T12:13:20.164Z,19.1
2023-04-10T12:14:36.000Z,18.8
2023-04-10T12:15:52.000Z,19.3
2023-04-10T12:17:08.000Z,19.6
2023-04-10T12:18:24.000Z,19.5
2023-04-10T12:19:41.329Z,19.4
2023-04-10T12:20:57.562Z,19.4
2023-04-10T12:22:13.000Z,19.3
2023-04-10T12:23:29.000Z,19.2
2023-04-10T12:24:45.000Z,19.4
2023-04-10T12:26:01.000Z,19.5
2023-04-10T12:27:17.755Z,19.7
2023-04-10T12:28:33.000Z,19.6
2023-04-10T12:29:50.221Z,19.7
2023-04-10T12:31:06.000Z,19.6
2023-04-10T12:32:22.000Z,19.8
2023-04-10T12:33:38.000Z,19.9
2023-04-10T12:34:54.000Z,19.9
2023-04-10T12:36:11.000Z,20
2023-04-10T12:37:27.000Z,19.9
2023-04-10T12:38:43.852Z,19.9
2023-04-10T12:39:59.000Z,19.9
2023-04-10T12:41:15.000Z,20.1
2023-04-10T12:42:31.000Z,20.3
2023-04-10T12:43:47.000Z,20.4
2023-04-10T12:45:04.156Z,20.7
2023-04-10T12:46:20.000Z,21.1
2023-04-10T12:47:36.000Z,21
2023-04-10T12:48:52.000Z,20.7
2023-04-10T12:50:08.000Z,20.7
2023-04-10T12:51:24.000Z,20.8
2023-04-10T12:52:41.000Z,20.9
2023-04-10T12:53:57.000Z,20.9
2023-04-10T12:55:13.000Z,21.3
2023-04-10T12:56:29.000Z,21.2
2023-04-10T12:57:45.000Z,21.2
2023-04-10T12:59:01.000Z,21.3
2023-04-10T13:00:17.000Z,21.4
2023-04-10T13:01:33.000Z,21
2023-04-10T13:02:50.000Z,20.5
2023-04-10T13:04:06.000Z,20.1
2023-04-10T13:05:22.000Z,19.8
2023-04-10T13:06:38.000Z,20.1
2023-04-10T13:07:54.000Z,20.2
2023-04-10T13:09:11.000Z,20.5
2023-04-10T13:10:27.000Z,20.7
2023-04-10T13:11:43.000Z,20.8
2023-04-10T13:12:59.000Z,20.8
2023-04-10T13:14:15.000Z,21
2023-04-10T13:15:31.000Z,20.6
2023-04-10T13:16:47.000Z,20.5
2023-04-10T13:18:03.000Z,20.8
2023-04-10T13:19:20.000Z,20.8
2023-04-10T13:20:36.000Z,20.8
2023-04-10T13:21:52.000Z,21.1
2023-04-10T13:23:08.000Z,21
2023-04-10T13:24:25.000Z,20.7
2023-04-10T13:25:41.000Z,20.8
2023-04-10T13:26:57.000Z,20.8
2023-04-10T13:28:13.000Z,20.8
2023-04-10T13:29:30.224Z,20.9
2023-04-10T13:30:45.465Z,20.8
2023-04-10T13:32:01.000Z,20.8
2023-04-10T13:33:17.000Z,20.5
2023-04-10T13:34:33.000Z,21
2023-04-10T13:35:50.000Z,21.2
2023-04-10T13:37:06.000Z,21.5
2023-04-10T13:38:22.000Z,21.5
2023-04-10T13:39:37.000Z,21
2023-04-10T13:40:53.000Z,20.9
2023-04-10T13:42:08.000Z,21.3
2023-04-10T13:43:23.000Z,21.5
2023-04-10T13:44:39.000Z,21.3
2023-04-10T13:45:56.000Z,21.2
2023-04-10T13:47:12.000Z,21.4
2023-04-10T13:48:28.000Z,21.6
2023-04-10T13:49:44.000Z,21.7
2023-04-10T13:51:01.000Z,21.7
2023-04-10T13:52:17.000Z,21.2
2023-04-10T13:53:33.000Z,20.9
2023-04-10T13:54:49.000Z,20.6
2023-04-10T13:56:05.000Z,20.5
2023-04-10T13:57:22.000Z,20.3
2023-04-10T13:58:38.685Z,20.1
2023-04-10T13:59:53.000Z,20.1
2023-04-10T14:01:09.000Z,20.4
2023-04-10T14:02:26.000Z,20.2
2023-04-10T14:03:42.000Z,20.3
2023-04-10T14:04:58.000Z,20.1
2023-04-10T14:06:14.000Z,20
2023-04-10T14:07:31.311Z,19.8
2023-04-10T14:08:47.000Z,19.9
2023-04-10T14:10:03.000Z,20
2023-04-10T14:11:19.000Z,20
2023-04-10T14:12:36.000Z,20
2023-04-10T14:13:52.000Z,20
2023-04-10T14:15:07.000Z,19.8
2023-04-10T14:16:23.000Z,19.5
2023-04-10T14:17:38.000Z,19.5
2023-04-10T14:18:54.496Z,19.4
2023-04-10T14:20:09.000Z,19.5
2023-04-10T14:21:24.000Z,19.6
2023-04-10T14:22:40.000Z,19.5
2023-04-10T14:23:57.000Z,19.3
2023-04-10T14:25:13.000Z,19.2
2023-04-10T14:26:29.000Z,19.3
2023-04-10T14:27:45.000Z,19.2
2023-04-10T14:29:02.000Z,19.4
2023-04-10T14:30:18.000Z,19.4
2023-04-10T14:31:34.856Z,19.2
2023-04-10T14:32:50.000Z,19.1
2023-04-10T14:34:07.000Z,19.1
2023-04-10T14:35:23.000Z,19.1
2023-04-10T14:36:39.000Z,19.1
2023-04-10T14:37:54.000Z,19.2
2023-04-10T14:39:11.000Z,19.1
2023-04-10T14:40:27.000Z,19
2023-04-10T14:41:43.000Z,19
2023-04-10T14:42:59.000Z,19.1
2023-04-10T14:44:15.000Z,19.2
2023-04-10T14:45:32.434Z,19.1
2023-04-10T14:46:48.000Z,19.1
2023-04-10T14:48:03.000Z,19.1
2023-04-10T14:49:18.000Z,19.1
2023-04-10T14:50:34.000Z,19.1
2023-04-10T14:51:49.000Z,19
2023-04-10T14:53:05.000Z,19
2023-04-10T14:54:21.000Z,18.9
2023-04-10T14:55:38.000Z,18.8
2023-04-10T14:56:54.000Z,18.8
2023-04-10T14:58:10.000Z,18.9
2023-04-10T14:59:26.000Z,19
2023-04-10T15:00:43.326Z,19.1
2023-04-10T15:01:59.000Z,19.1
2023-04-10T15:03:15.000Z,19.1
2023-04-10T15:04:31.000Z,19
2023-04-10T15:05:48.000Z,18.6
2023-04-10T15:07:04.000Z,18.5
2023-04-10T15:08:19.000Z,18.5
2023-04-10T15:09:35.000Z,18.5
2023-04-10T15:10:51.000Z,18.5
2023-04-10T15:12:08.438Z,18.4
2023-04-10T15:13:24.000Z,18.6
2023-04-10T15:14:40.000Z,18.6
2023-04-10T15:15:56.000Z,18.6
2023-04-10T15:17:12.000Z,18.5
2023-04-10T15:18:27.000Z,18.4
2023-04-10T15:19:43.000Z,18.3
2023-04-10T15:20:58.000Z,18.3
2023-04-10T15:22:14.000Z,18.4
2023-04-10T15:23:30.000Z,18.3
2023-04-10T15:24:46.000Z,18.2
2023-04-10T15:26:02.000Z,18.2
2023-04-10T15:27:19.000Z,18.3
2023-04-10T15:28:35.000Z,18.3
2023-04-10T15:29:52.118Z,18.3
2023-04-10T15:31:07.000Z,18.3
2023-04-10T15:32:24.000Z,18.3
2023-04-10T15:33:40.000Z,18.3
2023-04-10T15:34:56.000Z,18.2
2023-04-10T15:36:12.000Z,18.2
2023-04-10T15:37:28.000Z,18.1
2023-04-10T15:38:44.000Z,18.1
2023-04-10T15:40:00.000Z,18.1
2023-04-10T15:41:16.000Z,18.1
2023-04-10T15:42:32.000Z,18
2023-04-10T15:43:49.000Z,18
2023-04-10T15:45:05.000Z,18
2023-04-10T15:46:21.000Z,18
2023-04-10T15:47:37.000Z,17.9
2023-04-10T15:48:53.000Z,17.9
2023-04-10T15:50:08.000Z,17.8
2023-04-10T15:51:23.000Z,17.8
2023-04-10T15:52:38.000Z,17.7
2023-04-10T15:53:55.000Z,17.7
2023-04-10T15:55:11.000Z,17.7
2023-04-10T15:56:27.000Z,17.8
2023-04-10T15:57:43.000Z,17.9
2023-04-10T15:59:00.000Z,17.9
2023-04-10T16:00:16.000Z,17.8
2023-04-10T16:01:32.732Z,17.8
2023-04-10T16:02:48.000Z,17.9
2023-04-10T16:04:04.000Z,17.9
2023-04-10T16:05:21.000Z,18
2023-04-10T16:06:37.648Z,18
2023-04-10T16:07:53.000Z,18
2023-04-10T16:09:08.000Z,18.1
2023-04-10T16:10:25.000Z,17.9
2023-04-10T16:11:41.000Z,17.9
2023-04-10T16:12:57.000Z,17.8
2023-04-10T16:14:13.000Z,17.9
2023-04-10T16:15:30.000Z,17.9
2023-04-10T16:16:46.000Z,17.7
2023-04-10T16:18:02.000Z,17.6
2023-04-10T16:19:18.000Z,17.7
2023-04-10T16:20:34.000Z,17.7
2023-04-10T16:21:51.000Z,17.7
2023-04-10T16:23:07.000Z,17.7
2023-04-10T16:24:23.000Z,17.7
2023-04-10T16:25:38.000Z,17.7
2023-04-10T16:26:55.000Z,17.8
2023-04-10T16:28:11.000Z,17.8
2023-04-10T16:29:27.000Z,17.8
2023-04-10T16:30:43.000Z,17.9
2023-04-10T16:32:00.000Z,17.8
2023-04-10T16:33:16.000Z,17.8
2023-04-10T16:34:31.000Z,17.7
2023-04-10T16:35:46.000Z,17.7
2023-04-10T16:37:02.000Z,17.7
2023-04-10T16:38:17.000Z,17.6
2023-04-10T16:39:33.862Z,17.6
2023-04-10T16:40:49.000Z,17.6
2023-04-10T16:42:06.000Z,17.6
2023-04-10T16:43:22.000Z,17.6
2023-04-10T16:44:38.000Z,17.7
2023-04-10T16:45:54.000Z,17.7
2023-04-10T16:47:10.000Z,17.6
2023-04-10T16:48:27.000Z,17.6
2023-04-10T16:49:43.000Z,17.7
2023-04-10T16:50:59.000Z,17.8
2023-04-10T16:52:15.000Z,17.7
2023-04-10T16:53:32.000Z,17.6
2023-04-10T16:54:47.659Z,17.6
2023-04-10T16:56:03.000Z,17.7
2023-04-10T16:57:19.000Z,17.6
2023-04-10T16:58:36.000Z,17.6
2023-04-10T16:59:52.000Z,17.6
2023-04-10T17:01:08.000Z,17.5
2023-04-10T17:02:24.000Z,17.5
2023-04-10T17:03:40.000Z,17.5
2023-04-10T17:04:55.000Z,17.5
2023-04-10T17:06:11.000Z,17.5
2023-04-10T17:07:26.000Z,17.5
2023-04-10T17:08:42.000Z,17.5
2023-04-10T17:09:58.000Z,17.5
2023-04-10T17:11:14.761Z,17.5
2023-04-10T17:12:30.000Z,17.5